Overton, United Kingdom
Current Conditions -  °F | °C
As of 11:50 AM on Wednesday 28 Jan 2015 (Local Time) from EGVO Reporting Station
Broken Clouds Broken Clouds  
Wind Chill: 39°   Ceiling: 2800
Heat Index: 48°   Visibility: 6mi
Dew Point: 37°   Wind: 31mph
Humidity: 66%   Direction: 250°WSW
Pressure: 29.56"   Gusts: 45mph
Location:  51.24°N, 1.26°W
Report Text: EGVO 281150Z 25027G39KT 9999 BKN028 BKN050 09/03 Q1001 BLU TEMPO 5000 SHRA SCT020TCU WHT
Loading
Personal Weather Stations






























Interactive Weather Map New forecast layout! Learn more

10-Day Weather Forecast

Advertisements
Track Severe Weather on mobile